Time;durP1;ratioP1;P1;durP2;ratioP2;P2;SDS_P1;SDS_P2;PMS_P1;PMS_P2;Temp;Humidity;BMP_temperature;BMP_pressure;BME280_temperature;BME280_humidity;BME280_pressure;Samples;Min_cycle;Max_cycle;Signal;HPM_P1;HPM_P2
2022/06/27 00:00:09;;;;;;;9.73;8.70;;;17.70;83.80;;;;;;4960435;28;20100;-78
2022/06/27 00:02:39;;;;;;;11.38;8.70;;;17.70;83.70;;;;;;4976461;28;20505;-77
2022/06/27 00:05:05;;;;;;;13.13;9.27;;;17.70;83.80;;;;;;4960764;28;20034;-77
2022/06/27 00:07:31;;;;;;;10.48;8.55;;;17.60;83.80;;;;;;4976418;28;20111;-77
2022/06/27 00:09:57;;;;;;;11.80;9.07;;;17.60;83.80;;;;;;4976077;28;20673;-77
2022/06/27 00:12:24;;;;;;;10.35;9.23;;;17.60;84.00;;;;;;4976707;28;20042;-78
2022/06/27 00:14:50;;;;;;;11.95;8.45;;;17.60;84.00;;;;;;4992593;28;20093;-78
2022/06/27 00:17:16;;;;;;;10.73;9.63;;;17.50;84.00;;;;;;4976176;28;20069;-77
2022/06/27 00:19:41;;;;;;;11.38;8.77;;;17.60;83.90;;;;;;4976129;28;20073;-78
2022/06/27 00:22:08;;;;;;;10.73;8.27;;;17.50;84.00;;;;;;4976738;28;20410;-78
2022/06/27 00:24:34;;;;;;;10.20;8.57;;;17.50;84.00;;;;;;4979920;28;20046;-78
2022/06/27 00:26:59;;;;;;;10.02;8.10;;;17.50;84.00;;;;;;4980108;28;20129;-78
2022/06/27 00:29:25;;;;;;;10.57;8.75;;;17.50;83.90;;;;;;4979455;28;20053;-78
2022/06/27 00:31:51;;;;;;;9.77;7.63;;;17.50;83.90;;;;;;4979373;28;20097;-79
2022/06/27 00:34:17;;;;;;;9.25;8.18;;;17.50;83.80;;;;;;4979626;28;20108;-77
2022/06/27 00:36:43;;;;;;;9.90;8.90;;;17.60;83.80;;;;;;4963560;28;20039;-77
2022/06/27 00:39:09;;;;;;;11.93;9.93;;;17.60;83.70;;;;;;4963454;28;20041;-78
2022/06/27 00:41:35;;;;;;;11.20;10.00;;;17.60;83.80;;;;;;4979769;28;20479;-77
2022/06/27 00:44:01;;;;;;;10.43;9.30;;;17.50;83.90;;;;;;4995915;28;20046;-79
2022/06/27 00:46:29;;;;;;;11.32;10.07;;;17.50;84.00;;;;;;4963300;28;20050;-77
2022/06/27 00:48:55;;;;;;;12.35;10.18;;;17.50;84.10;;;;;;4963138;28;20042;-76
2022/06/27 00:51:24;;;;;;;17.83;11.20;;;17.60;84.20;;;;;;4978768;28;20129;-78
2022/06/27 00:53:54;;;;;;;12.63;9.75;;;17.60;84.30;;;;;;4962765;28;20073;-77
2022/06/27 00:56:20;;;;;;;13.25;10.40;;;17.60;84.50;;;;;;4962974;28;20050;-78
2022/06/27 00:58:46;;;;;;;11.57;10.38;;;17.60;84.50;;;;;;4995598;28;20042;-78
2022/06/27 01:01:12;;;;;;;11.63;10.45;;;17.60;84.60;;;;;;4979087;28;20066;-77
2022/06/27 01:03:38;;;;;;;13.40;10.73;;;17.60;84.70;;;;;;4979146;28;20057;-78
2022/06/27 01:06:04;;;;;;;13.55;10.77;;;17.60;84.70;;;;;;4962943;28;20030;-78
2022/06/27 01:08:30;;;;;;;12.00;10.73;;;17.60;85.00;;;;;;4946972;28;20043;-77
2022/06/27 01:10:56;;;;;;;14.98;10.68;;;17.50;85.20;;;;;;4962866;28;20081;-77
2022/06/27 01:13:22;;;;;;;14.85;11.70;;;17.60;85.30;;;;;;4979305;28;20365;-78
2022/06/27 01:15:49;;;;;;;11.60;10.48;;;17.50;85.30;;;;;;4979052;28;20045;-77
2022/06/27 01:18:15;;;;;;;12.85;11.40;;;17.60;85.60;;;;;;4978858;28;20034;-77
2022/06/27 01:20:45;;;;;;;13.38;9.93;;;17.60;85.70;;;;;;4962791;28;20053;-76
2022/06/27 01:23:12;;;;;;;11.07;9.98;;;17.60;85.50;;;;;;4979368;28;20485;-78
2022/06/27 01:25:39;;;;;;;12.20;10.90;;;17.60;85.50;;;;;;4978850;28;20133;-79
2022/06/27 01:28:07;;;;;;;12.77;11.35;;;17.50;85.70;;;;;;4978644;28;20049;-79
2022/06/27 01:30:33;;;;;;;12.23;11.13;;;17.50;85.80;;;;;;4962712;28;20045;-79
2022/06/27 01:32:58;;;;;;;12.95;11.75;;;17.40;85.70;;;;;;4977977;28;20039;-78
2022/06/27 01:35:24;;;;;;;13.75;12.35;;;17.40;85.80;;;;;;4946686;28;20054;-78
2022/06/27 01:37:50;;;;;;;19.10;13.05;;;17.40;86.00;;;;;;4978552;28;20034;-78
2022/06/27 01:40:16;;;;;;;13.65;11.60;;;17.30;86.00;;;;;;4946306;28;20038;-77
2022/06/27 01:42:42;;;;;;;13.32;12.05;;;17.20;86.30;;;;;;4978488;28;20046;-77
2022/06/27 01:45:09;;;;;;;13.23;11.80;;;17.20;86.30;;;;;;4978563;28;20038;-77
2022/06/27 01:47:36;;;;;;;12.55;11.10;;;17.30;86.40;;;;;;4978498;28;20561;-77
2022/06/27 01:50:02;;;;;;;11.68;10.35;;;17.30;86.20;;;;;;4930504;28;20042;-77
2022/06/27 01:52:28;;;;;;;14.63;10.98;;;17.30;86.10;;;;;;4962168;28;20048;-78
2022/06/27 01:54:55;;;;;;;10.50;9.50;;;17.30;86.00;;;;;;4978392;28;20054;-78
2022/06/27 01:57:22;;;;;;;12.98;10.90;;;17.30;85.90;;;;;;4978263;28;20045;-79
2022/06/27 01:59:50;;;;;;;13.82;11.02;;;17.30;85.80;;;;;;4978084;28;20043;-75
2022/06/27 02:02:17;;;;;;;11.77;10.57;;;17.30;85.90;;;;;;4978226;28;20047;-77
2022/06/27 02:04:44;;;;;;;12.68;11.45;;;17.30;85.70;;;;;;4978160;28;20133;-78
2022/06/27 02:07:11;;;;;;;13.10;9.93;;;17.40;85.80;;;;;;4994454;28;20497;-78
2022/06/27 02:09:37;;;;;;;13.00;10.30;;;17.40;85.80;;;;;;4961490;28;20089;-76
2022/06/27 02:12:18;;;;;;;11.68;10.55;;;17.40;85.80;;;;;;4993831;28;20147;-78
2022/06/27 02:14:49;;;;;;;11.38;10.23;;;17.40;85.80;;;;;;4977523;28;20110;-78
2022/06/27 02:17:16;;;;;;;13.20;10.73;;;17.40;85.80;;;;;;4961569;28;20035;-79
2022/06/27 02:19:42;;;;;;;17.38;11.35;;;17.40;85.90;;;;;;4993728;28;20049;-78
2022/06/27 02:22:10;;;;;;;12.38;11.15;;;17.40;85.80;;;;;;4993792;28;20050;-77
2022/06/27 02:24:36;;;;;;;12.05;10.85;;;17.50;86.00;;;;;;4994031;28;20406;-78
2022/06/27 02:27:02;;;;;;;12.85;11.00;;;17.40;86.00;;;;;;4993864;28;20495;-76
2022/06/27 02:29:28;;;;;;;12.38;10.80;;;17.40;85.90;;;;;;4961258;28;20050;-77
2022/06/27 02:31:53;;;;;;;14.63;10.57;;;17.40;86.00;;;;;;4977549;28;20054;-78
2022/06/27 02:34:19;;;;;;;12.13;10.77;;;17.40;86.00;;;;;;4977433;28;20050;-78
2022/06/27 02:36:47;;;;;;;11.75;10.50;;;17.40;86.00;;;;;;4977547;28;20042;-76
2022/06/27 02:39:17;;;;;;;11.65;10.48;;;17.50;86.00;;;;;;4977267;28;20132;-77
2022/06/27 02:41:44;;;;;;;13.20;11.80;;;17.40;85.90;;;;;;4977225;28;20038;-78
2022/06/27 02:44:13;;;;;;;12.38;11.20;;;17.50;85.80;;;;;;4977083;28;20057;-78
2022/06/27 02:46:40;;;;;;;13.82;12.43;;;17.50;85.90;;;;;;4976533;28;20125;-78
2022/06/27 02:49:07;;;;;;;13.73;12.35;;;17.40;85.90;;;;;;4961103;28;20092;-78
2022/06/27 02:51:54;;;;;;;15.52;12.02;;;17.40;86.00;;;;;;4977332;28;20376;-78
2022/06/27 02:54:24;;;;;;;16.50;12.38;;;17.40;86.20;;;;;;4977587;28;20438;-78
2022/06/27 02:56:56;;;;;;;14.32;12.20;;;17.40;86.20;;;;;;4977719;28;20060;-77
2022/06/27 02:59:32;;;;;;;13.40;12.02;;;17.40;86.30;;;;;;4960884;28;20049;-77
2022/06/27 03:01:58;;;;;;;12.90;11.60;;;17.40;86.40;;;;;;4960894;28;20053;-76
2022/06/27 03:04:24;;;;;;;14.00;12.60;;;17.50;86.40;;;;;;4977068;28;20038;-79
2022/06/27 03:06:50;;;;;;;14.43;12.57;;;17.40;86.50;;;;;;4977019;28;20045;-78
2022/06/27 03:09:17;;;;;;;16.67;12.43;;;17.40;86.70;;;;;;4977072;28;20089;-78
2022/06/27 03:11:46;;;;;;;14.25;12.80;;;17.40;86.60;;;;;;4976654;28;20064;-78
2022/06/27 03:14:11;;;;;;;13.73;12.27;;;17.40;86.70;;;;;;4960449;28;20038;-77
2022/06/27 03:16:37;;;;;;;13.80;12.32;;;17.40;86.80;;;;;;4977314;28;20050;-78
2022/06/27 03:19:03;;;;;;;14.13;12.60;;;17.40;86.80;;;;;;4993087;28;20047;-77
2022/06/27 03:21:29;;;;;;;16.90;13.60;;;17.40;86.90;;;;;;4960778;28;20084;-77
2022/06/27 03:23:55;;;;;;;14.48;12.95;;;17.30;87.00;;;;;;4976866;28;20117;-77
2022/06/27 03:26:21;;;;;;;13.05;11.82;;;17.30;87.00;;;;;;4993159;28;20122;-78
2022/06/27 03:28:46;;;;;;;13.98;12.50;;;17.40;87.00;;;;;;4976021;28;20044;-78
2022/06/27 03:31:13;;;;;;;13.25;11.57;;;17.40;87.10;;;;;;4976146;28;20414;-78
2022/06/27 03:33:39;;;;;;;14.13;11.75;;;17.40;87.10;;;;;;4960539;28;20487;-78
2022/06/27 03:36:06;;;;;;;13.73;11.75;;;17.40;87.10;;;;;;4960767;28;20038;-78
2022/06/27 03:38:32;;;;;;;14.80;13.18;;;17.40;87.20;;;;;;4944349;28;20070;-78
2022/06/27 03:40:58;;;;;;;13.23;11.93;;;17.40;87.20;;;;;;4976580;28;20045;-78
2022/06/27 03:43:24;;;;;;;15.88;13.30;;;17.50;87.30;;;;;;4976764;28;20474;-77
2022/06/27 03:45:50;;;;;;;14.75;13.02;;;17.40;87.30;;;;;;4976546;28;20081;-78
2022/06/27 03:51:00;;;;;;;13.63;12.32;;;17.40;87.40;;;;;;4976325;28;20081;-78
2022/06/27 03:53:26;;;;;;;14.82;11.73;;;17.30;87.40;;;;;;4976011;28;20140;-76
2022/06/27 03:55:51;;;;;;;14.13;12.32;;;17.30;87.50;;;;;;4976613;28;20046;-78
2022/06/27 03:58:17;;;;;;;15.30;12.18;;;17.30;87.60;;;;;;4996892;28;20078;-76
2022/06/27 04:00:44;;;;;;;19.13;13.98;;;17.30;87.50;;;;;;4964435;28;20084;-78
2022/06/27 04:03:09;;;;;;;14.95;13.32;;;17.30;87.40;;;;;;4964453;28;20048;-78
2022/06/27 04:05:35;;;;;;;12.60;11.27;;;17.30;87.50;;;;;;4964398;28;20133;-78
2022/06/27 04:08:01;;;;;;;14.13;12.68;;;17.30;87.60;;;;;;4980203;28;20042;-78
2022/06/27 04:10:27;;;;;;;13.68;12.25;;;17.30;87.70;;;;;;4980218;28;20275;-78
2022/06/27 04:12:52;;;;;;;14.20;12.73;;;17.30;87.60;;;;;;4980368;28;20121;-78
2022/06/27 04:15:18;;;;;;;15.57;13.98;;;17.30;87.70;;;;;;4980272;28;20129;-78
2022/06/27 04:17:44;;;;;;;15.57;13.98;;;17.30;87.60;;;;;;4980625;28;20038;-78
2022/06/27 04:20:10;;;;;;;15.52;14.02;;;17.40;87.60;;;;;;4964256;28;20434;-78
2022/06/27 04:22:36;;;;;;;15.68;14.18;;;17.30;87.70;;;;;;4980323;28;20042;-76
2022/06/27 04:25:02;;;;;;;16.65;12.95;;;17.30;87.70;;;;;;4964325;28;20108;-79
2022/06/27 04:27:28;;;;;;;16.08;13.05;;;17.30;87.70;;;;;;4979916;28;20054;-78
2022/06/27 04:29:54;;;;;;;14.32;12.82;;;17.40;87.70;;;;;;4932146;28;20042;-78
2022/06/27 04:32:22;;;;;;;13.77;12.32;;;17.40;87.60;;;;;;4980201;28;20043;-76
2022/06/27 04:34:49;;;;;;;13.05;11.65;;;17.40;87.50;;;;;;4963500;28;20049;-77
2022/06/27 04:37:16;;;;;;;11.80;10.60;;;17.40;87.30;;;;;;4996009;28;20042;-78
2022/06/27 04:39:42;;;;;;;13.00;11.25;;;17.40;87.20;;;;;;4979385;28;20046;-78
2022/06/27 04:42:08;;;;;;;16.95;13.73;;;17.40;87.00;;;;;;4979729;28;20042;-78
2022/06/27 04:44:36;;;;;;;16.50;12.00;;;17.40;87.00;;;;;;4980018;28;20038;-77
2022/06/27 04:47:02;;;;;;;13.15;11.75;;;17.50;86.90;;;;;;4979822;28;20038;-77
2022/06/27 04:49:28;;;;;;;13.77;12.18;;;17.50;86.90;;;;;;4979223;28;20108;-78
2022/06/27 04:51:55;;;;;;;14.70;11.93;;;17.50;86.80;;;;;;4963233;28;20046;-76
2022/06/27 04:54:22;;;;;;;12.63;11.13;;;17.50;86.80;;;;;;4995887;28;20042;-77
2022/06/27 04:56:48;;;;;;;12.35;11.02;;;17.60;86.80;;;;;;4979612;28;20043;-77
2022/06/27 04:59:14;;;;;;;13.82;12.45;;;17.60;86.70;;;;;;4995756;28;20034;-78
2022/06/27 05:01:40;;;;;;;15.52;12.02;;;17.70;86.70;;;;;;4979219;28;20532;-78
2022/06/27 05:04:06;;;;;;;13.18;11.77;;;17.70;86.80;;;;;;4979562;28;20034;-77
2022/06/27 05:06:32;;;;;;;14.23;12.65;;;17.70;86.90;;;;;;4947469;28;20045;-78
2022/06/27 05:08:58;;;;;;;16.42;12.00;;;17.70;86.90;;;;;;4978354;28;20057;-77
2022/06/27 05:11:24;;;;;;;12.02;10.63;;;17.70;87.00;;;;;;4979079;28;20054;-78
2022/06/27 05:13:50;;;;;;;12.15;10.85;;;17.70;87.00;;;;;;4979338;28;20406;-77
2022/06/27 05:16:17;;;;;;;12.60;10.57;;;17.80;87.10;;;;;;4978893;28;20042;-79
2022/06/27 05:18:43;;;;;;;12.65;9.45;;;17.80;87.00;;;;;;4963122;28;20046;-76
2022/06/27 05:21:09;;;;;;;13.18;10.18;;;17.80;86.90;;;;;;4978950;28;20039;-76
2022/06/27 05:23:38;;;;;;;13.13;10.63;;;17.90;86.70;;;;;;4978920;28;20085;-76
2022/06/27 05:26:05;;;;;;;13.10;11.27;;;17.90;86.60;;;;;;4978900;28;20038;-77
2022/06/27 05:28:30;;;;;;;13.95;11.48;;;18.00;86.40;;;;;;4978642;28;20042;-76
2022/06/27 05:30:56;;;;;;;12.52;11.27;;;18.00;86.40;;;;;;4962826;28;20042;-77
2022/06/27 05:33:25;;;;;;;15.98;12.30;;;18.00;86.30;;;;;;4994803;28;20406;-77
2022/06/27 05:35:51;;;;;;;12.52;11.43;;;18.10;86.50;;;;;;4978647;28;20046;-78
2022/06/27 05:38:18;;;;;;;16.30;13.95;;;18.20;86.40;;;;;;4978609;28;20050;-77
2022/06/27 05:40:45;;;;;;;12.93;11.75;;;18.20;86.50;;;;;;4962950;28;20057;-77
2022/06/27 05:43:11;;;;;;;13.30;12.07;;;18.30;86.50;;;;;;4993057;28;20610;-76
2022/06/27 05:45:37;;;;;;;14.30;12.85;;;18.40;86.30;;;;;;4967869;28;20046;-77
2022/06/27 05:48:03;;;;;;;13.35;12.15;;;18.50;86.30;;;;;;4966864;28;20058;-77
2022/06/27 05:50:29;;;;;;;13.05;11.73;;;18.50;86.20;;;;;;4974827;28;20065;-77
2022/06/27 05:52:59;;;;;;;10.25;9.15;;;18.50;86.10;;;;;;4974210;28;20120;-78
2022/06/27 05:55:28;;;;;;;12.10;10.65;;;18.50;85.80;;;;;;4973803;28;20053;-77
2022/06/27 05:57:54;;;;;;;12.82;11.57;;;18.60;85.60;;;;;;4939293;28;20038;-77
2022/06/27 06:00:21;;;;;;;12.45;11.10;;;18.60;85.20;;;;;;4979701;28;20482;-76
2022/06/27 06:02:47;;;;;;;12.13;10.93;;;18.60;85.20;;;;;;4956663;28;20736;-77
2022/06/27 06:05:14;;;;;;;14.02;12.63;;;18.60;85.20;;;;;;4973189;28;20172;-77
2022/06/27 06:07:42;;;;;;;16.38;14.68;;;18.70;85.10;;;;;;4957914;28;20135;-78
2022/06/27 06:10:09;;;;;;;16.83;13.65;;;18.70;85.20;;;;;;4971811;28;20070;-78
2022/06/27 06:12:35;;;;;;;15.98;14.30;;;18.80;85.20;;;;;;4957344;28;20204;-78
2022/06/27 06:15:04;;;;;;;17.23;15.00;;;18.80;85.10;;;;;;4972923;28;20129;-77
2022/06/27 06:17:34;;;;;;;14.35;12.95;;;18.80;85.30;;;;;;4973186;28;20494;-77
2022/06/27 06:20:00;;;;;;;15.90;13.18;;;18.90;85.20;;;;;;4979370;28;20045;-78
2022/06/27 06:22:26;;;;;;;13.00;11.80;;;18.90;85.30;;;;;;4973270;28;20482;-77
2022/06/27 06:24:52;;;;;;;16.90;15.10;;;18.90;85.00;;;;;;4974083;28;20057;-78
2022/06/27 06:27:19;;;;;;;18.40;16.55;;;18.90;84.90;;;;;;4973811;28;20054;-78
2022/06/27 06:29:45;;;;;;;17.98;15.93;;;18.90;84.90;;;;;;4973356;28;20053;-77
2022/06/27 06:32:11;;;;;;;15.85;14.32;;;18.90;84.80;;;;;;4982243;28;20081;-78
2022/06/27 06:34:38;;;;;;;14.90;13.35;;;18.90;85.00;;;;;;4995618;28;20129;-77
2022/06/27 06:37:06;;;;;;;21.17;15.93;;;18.90;85.00;;;;;;4973048;28;20061;-78
2022/06/27 06:39:32;;;;;;;19.55;17.35;;;18.90;84.90;;;;;;4971998;28;20081;-77
2022/06/27 06:41:58;;;;;;;16.77;15.00;;;18.90;85.10;;;;;;4956628;28;20050;-77
2022/06/27 06:44:24;;;;;;;20.45;18.30;;;19.00;85.20;;;;;;4972955;28;20053;-76
2022/06/27 06:46:52;;;;;;;17.83;16.13;;;19.00;85.10;;;;;;4997629;28;20150;-79
2022/06/27 06:49:18;;;;;;;18.30;16.55;;;19.00;85.20;;;;;;4956639;28;20046;-81
2022/06/27 06:51:44;;;;;;;19.23;17.23;;;19.00;85.30;;;;;;4940924;28;20194;-79
2022/06/27 06:54:15;;;;;;;18.83;16.65;;;19.00;85.20;;;;;;4956746;28;20046;-78
2022/06/27 06:56:41;;;;;;;18.95;17.15;;;19.10;85.30;;;;;;4957820;28;20046;-81
2022/06/27 06:59:07;;;;;;;17.95;16.17;;;19.10;85.10;;;;;;4995405;28;20050;-78
2022/06/27 07:01:35;;;;;;;16.90;14.95;;;19.10;85.20;;;;;;4968866;28;20049;-79
2022/06/27 07:04:02;;;;;;;19.10;17.10;;;19.00;85.20;;;;;;4973416;28;20392;-78
2022/06/27 07:06:29;;;;;;;17.77;15.98;;;19.10;85.10;;;;;;4994915;28;20463;-80
2022/06/27 07:08:57;;;;;;;20.10;17.10;;;19.00;85.10;;;;;;4973050;28;20047;-80
2022/06/27 07:11:31;;;;;;;14.20;12.70;;;19.00;85.20;;;;;;4967803;28;20516;-78
2022/06/27 07:13:58;;;;;;;18.85;16.15;;;19.00;85.00;;;;;;4967121;28;20054;-77
2022/06/27 07:16:25;;;;;;;17.88;16.02;;;19.00;84.80;;;;;;4953341;28;20047;-79
2022/06/27 07:18:55;;;;;;;18.80;17.00;;;19.00;84.60;;;;;;4970923;28;20049;-78
2022/06/27 07:21:22;;;;;;;14.52;13.02;;;18.90;84.70;;;;;;4973903;28;20546;-79
2022/06/27 07:23:49;;;;;;;13.30;11.90;;;18.90;84.50;;;;;;4973813;28;20050;-78
2022/06/27 07:26:17;;;;;;;17.55;13.40;;;19.00;84.70;;;;;;4974032;28;20050;-79
2022/06/27 07:28:44;;;;;;;19.45;15.20;;;18.90;84.40;;;;;;4957192;28;20049;-78
2022/06/27 07:31:11;;;;;;;20.83;18.08;;;18.90;84.70;;;;;;4972594;28;20119;-79
2022/06/27 07:33:49;;;;;;;19.40;17.40;;;18.90;85.10;;;;;;4971067;28;20051;-78
2022/06/27 07:36:15;;;;;;;22.02;19.88;;;18.90;84.80;;;;;;4968274;28;20043;-78
2022/06/27 07:38:46;;;;;;;23.00;20.33;;;18.90;85.10;;;;;;4967743;28;20133;-78
2022/06/27 07:41:14;;;;;;;20.58;16.27;;;18.90;85.20;;;;;;4967488;28;20055;-78
2022/06/27 07:43:41;;;;;;;22.80;19.80;;;18.90;85.20;;;;;;4950049;28;20047;-79
2022/06/27 07:46:06;;;;;;;19.95;18.02;;;19.00;85.80;;;;;;4966532;28;20051;-79
2022/06/27 07:48:33;;;;;;;18.98;17.00;;;18.90;85.50;;;;;;4975320;28;20045;-78
2022/06/27 07:50:59;;;;;;;15.95;14.43;;;18.90;85.40;;;;;;4956886;28;20061;-79
2022/06/27 07:53:26;;;;;;;21.90;19.63;;;18.90;85.40;;;;;;4948717;28;20531;-79
2022/06/27 07:56:00;;;;;;;20.98;18.77;;;18.90;85.10;;;;;;4967589;28;20087;-77
2022/06/27 07:58:38;;;;;;;21.77;18.35;;;19.00;85.50;;;;;;4974281;28;20081;-79
2022/06/27 08:01:09;;;;;;;19.45;17.48;;;19.00;85.60;;;;;;4950959;28;20089;-79
2022/06/27 08:03:47;;;;;;;19.58;17.65;;;19.00;85.50;;;;;;4976207;28;20515;-79
2022/06/27 08:06:26;;;;;;;18.67;16.77;;;19.00;85.30;;;;;;4967458;28;20058;-78
2022/06/27 08:08:57;;;;;;;18.80;17.00;;;19.00;85.10;;;;;;4953718;28;20121;-78
2022/06/27 08:11:25;;;;;;;17.58;15.88;;;19.00;85.20;;;;;;4943330;28;20105;-78
2022/06/27 08:13:54;;;;;;;18.88;16.92;;;19.10;84.90;;;;;;4943624;29;20130;-78
2022/06/27 08:16:22;;;;;;;20.17;18.17;;;19.10;84.90;;;;;;4945046;28;20507;-78
2022/06/27 08:18:50;;;;;;;18.33;16.50;;;19.20;85.00;;;;;;4947966;29;20047;-78
2022/06/27 08:21:19;;;;;;;18.65;16.65;;;19.20;84.90;;;;;;4925772;29;20479;-79
2022/06/27 08:23:46;;;;;;;17.33;15.40;;;19.30;84.80;;;;;;4946341;29;20070;-79
2022/06/27 08:26:16;;;;;;;18.52;16.65;;;19.40;85.00;;;;;;4946623;28;20603;-78
2022/06/27 08:28:42;;;;;;;18.83;16.98;;;19.40;84.90;;;;;;4951231;29;20122;-78
2022/06/27 08:31:10;;;;;;;16.92;15.20;;;19.40;84.80;;;;;;4953446;28;20043;-79
2022/06/27 08:33:37;;;;;;;20.35;18.17;;;19.40;84.80;;;;;;4953157;29;20050;-78
2022/06/27 08:36:04;;;;;;;16.05;14.23;;;19.40;84.90;;;;;;4953339;28;20061;-79
2022/06/27 08:38:32;;;;;;;14.05;12.57;;;19.40;84.70;;;;;;4937197;29;20075;-79
2022/06/27 08:40:58;;;;;;;18.90;16.42;;;19.40;84.40;;;;;;4953168;29;20051;-78
2022/06/27 08:43:26;;;;;;;15.88;14.25;;;19.50;84.20;;;;;;4938259;29;20055;-78
2022/06/27 08:45:53;;;;;;;14.05;12.70;;;19.50;84.20;;;;;;4956650;29;20047;-77
2022/06/27 08:48:19;;;;;;;13.98;12.48;;;19.50;84.20;;;;;;4956470;29;20114;-78
2022/06/27 08:50:46;;;;;;;14.60;12.23;;;19.60;83.80;;;;;;4956327;29;20043;-78
2022/06/27 08:53:13;;;;;;;13.60;11.93;;;19.60;83.00;;;;;;4940410;29;20051;-78
2022/06/27 08:55:45;;;;;;;12.40;11.15;;;19.60;81.40;;;;;;4956355;29;20457;-78
2022/06/27 08:58:11;;;;;;;12.32;11.02;;;19.70;80.30;;;;;;4940304;29;20043;-78
2022/06/27 09:00:40;;;;;;;13.35;12.05;;;19.80;81.30;;;;;;4956337;28;20039;-78
2022/06/27 09:03:10;;;;;;;11.82;10.68;;;19.90;81.00;;;;;;4940538;29;20043;-77
2022/06/27 09:05:36;;;;;;;14.10;12.73;;;20.00;80.70;;;;;;4956195;29;20517;-79
2022/06/27 09:08:06;;;;;;;12.48;10.15;;;20.00;80.40;;;;;;4956120;28;20126;-79
2022/06/27 09:10:41;;;;;;;9.45;7.80;;;20.10;80.10;;;;;;4956075;28;20051;-78
2022/06/27 09:13:16;;;;;;;10.43;8.07;;;20.10;79.00;;;;;;4940189;29;20043;-77
2022/06/27 09:15:53;;;;;;;13.65;8.73;;;20.20;78.00;;;;;;4972110;28;20043;-76
2022/06/27 09:18:21;;;;;;;9.13;7.97;;;20.30;77.40;;;;;;4972570;28;20395;-79
2022/06/27 09:20:49;;;;;;;10.07;7.38;;;20.40;77.60;;;;;;4955899;29;20039;-79
2022/06/27 09:23:27;;;;;;;12.25;7.82;;;20.60;76.90;;;;;;4955913;29;20045;-78
2022/06/27 09:26:05;;;;;;;13.32;9.35;;;20.80;75.10;;;;;;4955743;28;20047;-77
2022/06/27 09:28:50;;;;;;;10.25;9.02;;;20.80;75.20;;;;;;4956057;29;20043;-77
2022/06/27 09:31:28;;;;;;;11.30;9.85;;;20.90;74.90;;;;;;4955947;29;20058;-78
2022/06/27 09:34:26;;;;;;;11.50;9.02;;;20.90;74.50;;;;;;4971814;28;20050;-80
2022/06/27 09:36:57;;;;;;;9.10;8.18;;;20.90;75.20;;;;;;4955830;28;20389;-79
2022/06/27 09:39:35;;;;;;;8.48;7.20;;;20.90;74.90;;;;;;4955959;29;20054;-80
2022/06/27 09:42:03;;;;;;;9.43;7.53;;;20.90;71.50;;;;;;4955677;29;20043;-79
2022/06/27 09:44:41;;;;;;;10.80;8.73;;;20.80;72.70;;;;;;4971597;28;20046;-78
2022/06/27 09:47:17;;;;;;;9.05;7.75;;;20.90;72.80;;;;;;4939345;29;20054;-79
2022/06/27 09:49:46;;;;;;;11.18;6.82;;;21.00;73.00;;;;;;4955596;29;20522;-79
2022/06/27 09:52:14;;;;;;;11.93;7.45;;;20.90;73.00;;;;;;4939535;29;20496;-79
2022/06/27 09:54:43;;;;;;;10.43;6.88;;;21.00;72.40;;;;;;4955353;28;20039;-78
2022/06/27 09:57:10;;;;;;;7.88;7.03;;;20.90;72.10;;;;;;4955647;28;20039;-78
2022/06/27 09:59:38;;;;;;;8.27;7.40;;;20.90;71.90;;;;;;4955257;29;20035;-78
2022/06/27 10:02:05;;;;;;;8.35;6.70;;;20.90;71.70;;;;;;4939658;29;20039;-80
2022/06/27 10:04:32;;;;;;;11.68;7.22;;;20.90;71.00;;;;;;4956047;29;20046;-80
2022/06/27 10:07:02;;;;;;;8.75;6.90;;;21.00;71.20;;;;;;4971553;28;20050;-79
2022/06/27 10:09:29;;;;;;;8.93;7.70;;;21.00;71.10;;;;;;4971627;28;20070;-79
2022/06/27 10:12:31;;;;;;;9.82;6.80;;;21.00;70.90;;;;;;4970861;28;20066;-79
2022/06/27 10:15:12;;;;;;;9.50;6.75;;;21.00;70.20;;;;;;4954991;29;20484;-80
2022/06/27 10:17:39;;;;;;;9.85;7.03;;;21.00;70.10;;;;;;4970871;28;20074;-80
2022/06/27 10:20:20;;;;;;;8.82;6.80;;;21.00;70.60;;;;;;4954804;29;20075;-81
2022/06/27 10:23:08;;;;;;;7.00;5.97;;;21.00;70.00;;;;;;4966173;28;20039;-80
2022/06/27 10:25:35;;;;;;;9.75;7.85;;;20.90;70.30;;;;;;4954749;29;20133;-81
2022/06/27 10:28:10;;;;;;;10.48;7.32;;;21.00;70.50;;;;;;4954807;28;20130;-79
2022/06/27 10:30:52;;;;;;;8.32;6.07;;;21.10;70.80;;;;;;4938801;29;20039;-78
2022/06/27 10:33:21;;;;;;;9.38;6.60;;;21.20;70.80;;;;;;4938773;29;20035;-79
2022/06/27 10:35:57;;;;;;;10.75;7.60;;;21.30;70.70;;;;;;4955008;29;20101;-80
2022/06/27 10:38:28;;;;;;;11.88;6.20;;;21.30;68.60;;;;;;4938582;29;20125;-81
2022/06/27 10:40:55;;;;;;;10.20;6.20;;;21.30;69.30;;;;;;4954499;29;20083;-80
2022/06/27 10:43:39;;;;;;;8.57;6.85;;;21.20;66.70;;;;;;4938386;29;20484;-80
2022/06/27 10:46:11;;;;;;;10.48;6.50;;;21.20;67.30;;;;;;4938337;28;20050;-80
2022/06/27 10:48:42;;;;;;;7.68;6.57;;;21.20;68.60;;;;;;4938615;29;20381;-81
2022/06/27 10:51:24;;;;;;;9.00;6.93;;;21.20;68.50;;;;;;4938687;29;20399;-86
2022/06/27 10:54:02;;;;;;;12.45;7.10;;;21.20;68.10;;;;;;4938919;29;20369;-86
2022/06/27 10:56:28;;;;;;;9.90;6.32;;;21.20;68.60;;;;;;4938502;29;20514;-82
2022/06/27 10:58:55;;;;;;;8.90;6.47;;;21.20;68.70;;;;;;4954287;29;20049;-82
2022/06/27 11:01:21;;;;;;;8.75;5.78;;;21.20;68.70;;;;;;4938295;29;20035;-83
2022/06/27 11:03:48;;;;;;;10.77;6.50;;;21.20;68.30;;;;;;4922603;29;20039;-81
2022/06/27 11:06:14;;;;;;;9.23;5.70;;;21.10;68.60;;;;;;4953267;28;20046;-83
2022/06/27 11:08:42;;;;;;;9.55;5.90;;;21.10;68.10;;;;;;4938034;29;20090;-82
2022/06/27 11:11:14;;;;;;;8.10;5.50;;;21.10;68.00;;;;;;4950105;28;20089;-82
2022/06/27 11:13:56;;;;;;;5.55;4.32;;;21.00;68.00;;;;;;4957127;28;20505;-82
2022/06/27 11:16:22;;;;;;;6.88;4.78;;;21.10;67.70;;;;;;4956657;28;20046;-82
2022/06/27 11:19:00;;;;;;;9.65;6.50;;;21.20;67.60;;;;;;4954194;28;20039;-81
2022/06/27 11:21:36;;;;;;;8.15;6.40;;;21.10;67.50;;;;;;4966254;28;20126;-81
2022/06/27 11:24:07;;;;;;;8.80;6.55;;;21.10;68.00;;;;;;4954378;28;20039;-82
2022/06/27 11:26:36;;;;;;;9.13;6.80;;;21.10;68.30;;;;;;4937985;29;20038;-82
2022/06/27 11:32:00;;;;;;;11.98;7.32;;;21.10;68.40;;;;;;4953158;29;20130;-82
2022/06/27 11:34:28;;;;;;;9.80;7.00;;;21.10;68.50;;;;;;4952009;29;20043;-82
2022/06/27 11:36:55;;;;;;;9.48;6.20;;;21.20;68.70;;;;;;4936427;29;20102;-79
2022/06/27 11:39:26;;;;;;;8.45;5.35;;;21.30;69.60;;;;;;4936826;29;20050;-80
2022/06/27 11:42:01;;;;;;;7.38;6.28;;;21.40;69.60;;;;;;4953343;29;20043;-81
2022/06/27 11:44:27;;;;;;;8.15;7.30;;;21.50;69.30;;;;;;4937957;29;20109;-81
2022/06/27 11:47:05;;;;;;;7.03;5.72;;;21.60;69.00;;;;;;4953782;28;20059;-81
2022/06/27 11:49:32;;;;;;;9.60;6.93;;;21.60;68.50;;;;;;4953576;29;20054;-81
2022/06/27 11:52:00;;;;;;;8.48;6.90;;;21.70;68.20;;;;;;4953451;28;20098;-80
2022/06/27 11:54:37;;;;;;;9.60;7.53;;;21.70;67.90;;;;;;4953514;29;20122;-80
2022/06/27 11:57:02;;;;;;;8.27;6.22;;;21.80;67.30;;;;;;4937712;29;20035;-81
2022/06/27 11:59:29;;;;;;;9.75;6.50;;;21.70;67.40;;;;;;4953451;29;20039;-80
2022/06/27 12:02:01;;;;;;;7.57;6.63;;;21.80;68.00;;;;;;4937682;29;20399;-81
2022/06/27 12:04:32;;;;;;;10.27;7.97;;;21.70;67.60;;;;;;4953670;29;20154;-81
2022/06/27 12:07:07;;;;;;;8.32;7.03;;;21.70;67.40;;;;;;4937702;29;20106;-79
2022/06/27 12:09:51;;;;;;;8.95;5.88;;;21.60;66.90;;;;;;4953444;29;20058;-81
2022/06/27 12:12:21;;;;;;;7.32;6.07;;;21.70;67.10;;;;;;4956579;28;20039;-80
2022/06/27 12:14:49;;;;;;;11.40;5.70;;;21.70;67.20;;;;;;4940661;28;20038;-80
2022/06/27 12:17:15;;;;;;;7.70;6.72;;;21.80;66.40;;;;;;4957399;28;20035;-80
2022/06/27 12:19:41;;;;;;;9.60;6.18;;;21.90;65.60;;;;;;4960662;28;20102;-80
2022/06/27 12:22:08;;;;;;;7.85;6.43;;;22.00;65.30;;;;;;4960605;28;20391;-80
2022/06/27 12:24:34;;;;;;;9.05;7.22;;;22.10;64.00;;;;;;4960123;28;20499;-81
2022/06/27 12:27:00;;;;;;;7.50;5.97;;;22.20;63.40;;;;;;4960140;28;20038;-80
2022/06/27 12:29:26;;;;;;;10.63;6.50;;;22.20;64.00;;;;;;4976440;28;20034;-81
2022/06/27 12:31:52;;;;;;;7.88;5.88;;;22.20;64.60;;;;;;4960156;28;20551;-83
2022/06/27 12:34:18;;;;;;;8.32;5.13;;;22.20;64.90;;;;;;4960257;28;20046;-80
2022/06/27 12:36:44;;;;;;;8.45;5.47;;;22.20;64.80;;;;;;4959878;28;20399;-80
2022/06/27 12:39:09;;;;;;;8.07;5.72;;;22.30;65.10;;;;;;4959888;28;20112;-80
2022/06/27 12:41:36;;;;;;;6.95;6.10;;;22.30;65.10;;;;;;4975981;28;20074;-81
2022/06/27 12:44:03;;;;;;;8.38;5.88;;;22.30;65.70;;;;;;4959778;28;20035;-82